createdAt,value
2018-09-29T00:00:35.223Z,39.08
2018-09-29T00:03:04.220Z,40.37
2018-09-29T00:05:33.050Z,40.67
2018-09-29T00:08:02.906Z,40.21
2018-09-29T00:10:31.937Z,41.21
2018-09-29T00:13:01.071Z,41.80
2018-09-29T00:15:29.729Z,42.67
2018-09-29T00:17:58.541Z,43.58
2018-09-29T00:20:27.254Z,43.76
2018-09-29T00:22:56.185Z,44.49
2018-09-29T00:25:25.017Z,44.81
2018-09-29T00:27:53.887Z,43.74
2018-09-29T00:30:22.971Z,44.36
2018-09-29T00:32:51.903Z,44.10
2018-09-29T00:35:20.763Z,43.70
2018-09-29T00:37:49.822Z,44.15
2018-09-29T00:40:18.663Z,44.34
2018-09-29T00:42:47.462Z,44.08
2018-09-29T00:45:16.475Z,44.26
2018-09-29T00:47:45.098Z,45.67
2018-09-29T00:50:13.824Z,46.02
2018-09-29T00:52:42.955Z,45.83
2018-09-29T00:55:12.036Z,44.79
2018-09-29T00:57:40.984Z,45.19
2018-09-29T01:00:09.979Z,45.79
2018-09-29T01:02:38.871Z,45.04
2018-09-29T01:05:07.627Z,44.27
2018-09-29T01:07:36.654Z,43.90
2018-09-29T01:10:05.786Z,44.08
2018-09-29T01:12:34.583Z,43.31
2018-09-29T01:15:03.399Z,43.79
2018-09-29T01:17:32.098Z,43.45
2018-09-29T01:20:00.731Z,42.52
2018-09-29T01:22:29.448Z,41.84
2018-09-29T01:24:58.390Z,42.15
2018-09-29T01:27:27.483Z,42.26
2018-09-29T01:29:56.472Z,41.21
2018-09-29T01:32:25.396Z,40.71
2018-09-29T01:34:54.160Z,40.47
2018-09-29T01:37:23.388Z,40.56
2018-09-29T01:39:52.517Z,41.23
2018-09-29T01:42:21.364Z,41.01
2018-09-29T01:44:50.082Z,41.17
2018-09-29T01:47:18.846Z,40.84
2018-09-29T01:49:47.554Z,40.79
2018-09-29T01:52:16.463Z,40.79
2018-09-29T01:54:45.323Z,40.67
2018-09-29T01:57:14.306Z,40.22
2018-09-29T01:59:43.155Z,41.01
2018-09-29T02:02:11.923Z,40.89
2018-09-29T02:04:40.793Z,40.42
2018-09-29T02:07:09.954Z,40.11
2018-09-29T02:09:38.819Z,40.53
2018-09-29T02:12:07.883Z,40.31
2018-09-29T02:14:36.869Z,38.88
2018-09-29T02:17:05.750Z,39.83
2018-09-29T02:19:34.512Z,38.88
2018-09-29T02:22:03.695Z,39.24
2018-09-29T02:24:32.635Z,39.47
2018-09-29T02:27:01.479Z,39.93
2018-09-29T02:29:30.310Z,39.75
2018-09-29T02:31:59.370Z,39.58
2018-09-29T02:34:28.400Z,38.43
2018-09-29T02:36:57.097Z,40.05
2018-09-29T02:39:25.891Z,39.92
2018-09-29T02:41:54.859Z,39.57
2018-09-29T02:44:23.720Z,39.49
2018-09-29T02:46:52.347Z,38.68
2018-09-29T02:49:20.969Z,39.12
2018-09-29T02:51:49.962Z,39.58
2018-09-29T02:54:18.928Z,39.80
2018-09-29T02:56:47.819Z,38.87
2018-09-29T02:59:16.843Z,39.23
2018-09-29T03:01:45.916Z,38.76
2018-09-29T03:04:14.876Z,38.67
2018-09-29T03:06:43.849Z,37.81
2018-09-29T03:09:12.735Z,38.01
2018-09-29T03:11:41.879Z,38.03
2018-09-29T03:14:10.787Z,37.94
2018-09-29T03:16:39.592Z,38.05
2018-09-29T03:19:08.278Z,38.29
2018-09-29T03:21:37.105Z,39.20
2018-09-29T03:24:06.100Z,38.77
2018-09-29T03:26:35.225Z,38.46
2018-09-29T03:29:04.175Z,36.33
2018-09-29T03:31:32.931Z,36.03
2018-09-29T03:34:01.703Z,35.90
2018-09-29T03:36:30.566Z,36.49
2018-09-29T03:38:59.231Z,37.12
2018-09-29T03:41:28.124Z,37.83
2018-09-29T03:43:56.876Z,39.30
2018-09-29T03:46:25.845Z,38.67
2018-09-29T03:48:54.498Z,38.92
2018-09-29T03:51:23.294Z,39.53
2018-09-29T03:53:52.499Z,39.90
2018-09-29T03:56:21.280Z,40.15
2018-09-29T03:58:50.254Z,39.53
2018-09-29T04:01:19.360Z,39.93
2018-09-29T04:03:48.179Z,39.18
2018-09-29T04:06:17.227Z,39.67
2018-09-29T04:08:46.330Z,39.50
2018-09-29T04:11:15.215Z,39.51
2018-09-29T04:13:44.099Z,39.60
2018-09-29T04:16:13.138Z,41.87
2018-09-29T04:18:41.727Z,41.79
2018-09-29T04:21:10.793Z,42.62
2018-09-29T04:23:39.713Z,43.18
2018-09-29T04:26:08.543Z,43.89
2018-09-29T04:28:37.481Z,45.11
2018-09-29T04:31:06.596Z,46.94
2018-09-29T04:33:35.406Z,48.26
2018-09-29T04:36:04.287Z,48.74
2018-09-29T04:38:33.104Z,48.93
2018-09-29T04:41:01.884Z,48.54
2018-09-29T04:43:30.674Z,49.56
2018-09-29T04:45:59.904Z,49.46
2018-09-29T04:48:28.504Z,50.15
2018-09-29T04:50:57.287Z,51.21
2018-09-29T04:53:27.154Z,51.20
2018-09-29T04:55:56.105Z,50.43
2018-09-29T04:58:24.819Z,49.63
2018-09-29T05:00:53.725Z,49.53
2018-09-29T05:03:22.781Z,49.26
2018-09-29T05:05:51.682Z,48.90
2018-09-29T05:08:21.024Z,48.82
2018-09-29T05:10:49.975Z,48.11
2018-09-29T05:13:18.815Z,46.99
2018-09-29T05:15:47.675Z,46.62
2018-09-29T05:18:16.464Z,44.94
2018-09-29T05:20:45.540Z,45.84
2018-09-29T05:23:14.530Z,45.93
2018-09-29T05:25:43.336Z,45.63
2018-09-29T05:28:12.100Z,46.31
2018-09-29T05:30:41.344Z,45.57
2018-09-29T05:33:10.367Z,45.21
2018-09-29T05:35:39.345Z,42.98
2018-09-29T05:38:08.915Z,40.97
2018-09-29T05:40:37.906Z,41.03
2018-09-29T05:43:06.772Z,40.78
2018-09-29T05:45:35.535Z,39.59
2018-09-29T05:48:04.555Z,39.05
2018-09-29T05:50:33.509Z,37.88
2018-09-29T05:53:02.797Z,37.29
2018-09-29T05:55:31.782Z,37.06
2018-09-29T05:58:00.684Z,35.95
2018-09-29T06:00:29.654Z,33.53
2018-09-29T06:02:59.431Z,34.02
2018-09-29T06:05:28.650Z,34.24
2018-09-29T06:07:57.277Z,34.69
2018-09-29T06:10:26.352Z,34.08
2018-09-29T06:12:56.010Z,33.12
2018-09-29T06:15:24.818Z,32.84
2018-09-29T06:17:53.426Z,32.39
2018-09-29T06:20:22.170Z,32.79
2018-09-29T06:22:51.092Z,33.54
2018-09-29T06:25:20.098Z,31.47
2018-09-29T06:27:48.999Z,31.50
2018-09-29T06:30:17.886Z,31.29
2018-09-29T06:32:47.203Z,30.66
2018-09-29T06:35:15.878Z,30.91
2018-09-29T06:37:44.950Z,29.97
2018-09-29T06:40:13.868Z,29.64
2018-09-29T06:42:42.472Z,29.76
2018-09-29T06:45:11.175Z,28.86
2018-09-29T06:47:40.167Z,28.16
2018-09-29T06:50:09.304Z,28.86
2018-09-29T06:52:38.311Z,28.77
2018-09-29T06:55:07.227Z,28.56
2018-09-29T06:57:36.294Z,29.11
2018-09-29T07:00:05.331Z,28.92
2018-09-29T07:02:34.427Z,28.09
2018-09-29T07:05:03.471Z,27.17
2018-09-29T07:07:32.576Z,26.79
2018-09-29T07:10:01.667Z,26.70
2018-09-29T07:12:30.529Z,26.42
2018-09-29T07:14:59.464Z,26.11
2018-09-29T07:17:28.769Z,25.94
2018-09-29T07:19:57.658Z,25.83
2018-09-29T07:22:26.550Z,26.01
2018-09-29T07:24:55.655Z,25.97
2018-09-29T07:27:24.434Z,24.90
2018-09-29T07:29:53.535Z,24.89
2018-09-29T07:32:22.862Z,24.42
2018-09-29T07:34:51.839Z,24.77
2018-09-29T07:37:20.587Z,25.18
2018-09-29T07:39:49.940Z,24.44
2018-09-29T07:42:18.578Z,24.77
2018-09-29T07:44:47.664Z,24.15
2018-09-29T07:47:16.693Z,23.95
2018-09-29T07:49:45.427Z,24.10
2018-09-29T07:52:14.054Z,24.10
2018-09-29T07:54:43.505Z,24.54
2018-09-29T07:57:12.798Z,23.36
2018-09-29T07:59:42.511Z,23.68
2018-09-29T08:02:11.369Z,23.55
2018-09-29T08:04:41.230Z,23.19
2018-09-29T08:07:10.307Z,23.03
2018-09-29T08:09:39.020Z,22.87
2018-09-29T08:12:07.794Z,22.82
2018-09-29T08:14:37.043Z,22.75
2018-09-29T08:17:05.844Z,21.90
2018-09-29T08:19:34.545Z,22.21
2018-09-29T08:22:03.525Z,21.88
2018-09-29T08:24:32.601Z,21.89
2018-09-29T08:27:01.823Z,21.81
2018-09-29T08:29:30.950Z,22.12
2018-09-29T08:31:59.803Z,22.76
2018-09-29T08:34:28.600Z,22.58
2018-09-29T08:36:57.415Z,22.86
2018-09-29T08:39:26.219Z,22.82
2018-09-29T08:41:55.027Z,23.43
2018-09-29T08:44:23.787Z,22.95
2018-09-29T08:46:52.788Z,23.13
2018-09-29T08:49:21.371Z,22.89
2018-09-29T08:51:50.311Z,22.83
2018-09-29T08:54:19.378Z,22.52
2018-09-29T08:56:48.320Z,22.45
2018-09-29T08:59:17.371Z,22.24
2018-09-29T09:01:46.432Z,22.20
2018-09-29T09:04:15.180Z,21.88
2018-09-29T09:06:44.039Z,21.60
2018-09-29T09:09:12.685Z,22.12
2018-09-29T09:11:41.298Z,22.28
2018-09-29T09:14:10.182Z,21.84
2018-09-29T09:16:39.041Z,21.53
2018-09-29T09:19:07.932Z,21.53
2018-09-29T09:21:36.578Z,22.08
2018-09-29T09:24:05.626Z,22.23
2018-09-29T09:26:34.432Z,22.38
2018-09-29T09:29:03.332Z,22.19
2018-09-29T09:31:32.145Z,21.29
2018-09-29T09:34:01.138Z,21.03
2018-09-29T09:36:29.826Z,22.60
2018-09-29T09:38:58.670Z,22.16
2018-09-29T09:41:27.440Z,20.78
2018-09-29T09:43:56.388Z,20.73
2018-09-29T09:46:25.603Z,20.72
2018-09-29T09:48:54.344Z,21.32
2018-09-29T09:51:23.292Z,20.75
2018-09-29T09:53:52.294Z,20.94
2018-09-29T09:56:21.287Z,21.27
2018-09-29T09:58:50.076Z,21.10
2018-09-29T10:01:24.142Z,20.50
2018-09-29T10:03:53.118Z,19.73
2018-09-29T10:06:21.769Z,18.49
2018-09-29T10:08:50.541Z,18.50
2018-09-29T10:11:19.282Z,18.38
2018-09-29T10:13:48.324Z,16.61
2018-09-29T10:16:17.595Z,16.98
2018-09-29T10:18:46.619Z,17.03
2018-09-29T10:21:15.519Z,15.90
2018-09-29T10:23:44.274Z,16.23
2018-09-29T10:26:13.234Z,16.33
2018-09-29T10:28:42.309Z,16.62
2018-09-29T10:31:11.308Z,16.17
2018-09-29T10:33:39.972Z,17.98
2018-09-29T10:36:08.761Z,17.82
2018-09-29T10:38:37.994Z,16.46
2018-09-29T10:41:06.812Z,16.95
2018-09-29T10:43:35.639Z,17.71
2018-09-29T10:46:04.762Z,16.56
2018-09-29T10:48:33.567Z,17.15
2018-09-29T10:51:02.631Z,17.51
2018-09-29T10:53:31.969Z,16.90
2018-09-29T10:56:00.842Z,15.73
2018-09-29T10:58:29.975Z,16.19
2018-09-29T11:00:58.782Z,15.46
2018-09-29T11:03:27.570Z,15.54
2018-09-29T11:05:56.474Z,15.74
2018-09-29T11:08:25.223Z,15.74
2018-09-29T11:10:54.070Z,15.14
2018-09-29T11:13:23.194Z,14.70
2018-09-29T11:15:52.354Z,15.12
2018-09-29T11:18:21.268Z,14.38
2018-09-29T11:20:50.088Z,14.63
2018-09-29T11:23:18.930Z,15.24
2018-09-29T11:25:48.094Z,15.57
2018-09-29T11:28:16.868Z,14.24
2018-09-29T11:30:45.530Z,15.72
2018-09-29T11:33:14.476Z,15.96
2018-09-29T11:35:43.157Z,15.12
2018-09-29T11:38:11.872Z,15.62
2018-09-29T11:40:40.956Z,15.57
2018-09-29T11:43:09.928Z,15.02
2018-09-29T11:45:39.242Z,14.54
2018-09-29T11:48:08.020Z,15.36
2018-09-29T11:50:36.802Z,14.75
2018-09-29T11:53:05.455Z,15.02
2018-09-29T11:55:35.394Z,15.40
2018-09-29T11:58:04.183Z,15.94
2018-09-29T12:00:33.198Z,15.13
2018-09-29T12:03:01.943Z,16.45
2018-09-29T12:05:30.640Z,15.46
2018-09-29T12:07:59.437Z,15.09
2018-09-29T12:10:28.240Z,14.89
2018-09-29T12:12:57.443Z,15.06
2018-09-29T12:15:26.121Z,13.94
2018-09-29T12:17:55.291Z,14.34
2018-09-29T12:20:24.195Z,14.75
2018-09-29T12:22:53.212Z,14.65
2018-09-29T12:25:22.199Z,13.36
2018-09-29T12:27:51.131Z,12.64
2018-09-29T12:30:20.078Z,12.16
2018-09-29T12:32:48.699Z,12.98
2018-09-29T12:35:17.366Z,12.17
2018-09-29T12:37:46.044Z,12.45
2018-09-29T12:40:15.182Z,12.22
2018-09-29T12:42:44.207Z,11.50
2018-09-29T12:45:12.916Z,11.63
2018-09-29T12:47:42.171Z,11.12
2018-09-29T12:50:11.157Z,10.70
2018-09-29T12:52:39.905Z,10.85
2018-09-29T12:55:08.763Z,10.16
2018-09-29T12:57:37.698Z,11.09
2018-09-29T13:00:07.523Z,10.73
2018-09-29T13:02:36.108Z,11.12
2018-09-29T13:05:05.034Z,11.02
2018-09-29T13:07:34.085Z,10.60
2018-09-29T13:10:02.800Z,10.77
2018-09-29T13:12:31.555Z,11.16
2018-09-29T13:15:00.554Z,10.02
2018-09-29T13:17:29.445Z,10.97
2018-09-29T13:19:58.370Z,10.99
2018-09-29T13:22:27.114Z,9.73
2018-09-29T13:24:55.808Z,9.74
2018-09-29T13:27:24.931Z,7.98
2018-09-29T13:29:53.615Z,8.58
2018-09-29T13:32:22.341Z,8.87
2018-09-29T13:34:51.073Z,9.68
2018-09-29T13:37:19.759Z,8.36
2018-09-29T13:39:48.919Z,10.22
2018-09-29T13:42:17.977Z,9.85
2018-09-29T13:44:47.000Z,10.16
2018-09-29T13:47:16.034Z,9.87
2018-09-29T13:49:44.713Z,10.43
2018-09-29T13:52:13.924Z,10.19
2018-09-29T13:54:42.927Z,10.33
2018-09-29T13:57:11.801Z,10.17
2018-09-29T13:59:40.486Z,9.30
2018-09-29T14:02:09.220Z,8.53
2018-09-29T14:04:37.966Z,8.96
2018-09-29T14:07:06.756Z,8.21
2018-09-29T14:09:35.590Z,8.50
2018-09-29T14:12:04.940Z,8.05
2018-09-29T14:14:33.902Z,8.18
2018-09-29T14:17:02.983Z,9.03
2018-09-29T14:19:31.899Z,8.91
2018-09-29T14:22:00.970Z,10.11
2018-09-29T14:24:30.043Z,10.46
2018-09-29T14:26:59.072Z,10.48
2018-09-29T14:29:27.815Z,10.38
2018-09-29T14:31:56.552Z,10.15
2018-09-29T14:34:25.229Z,10.62
2018-09-29T14:36:54.023Z,10.30
2018-09-29T14:39:23.376Z,9.60
2018-09-29T14:41:52.256Z,9.71
2018-09-29T14:44:21.267Z,10.87
2018-09-29T14:46:50.172Z,11.09
2018-09-29T14:49:19.154Z,10.98
2018-09-29T14:51:48.218Z,11.57
2018-09-29T14:54:16.823Z,11.04
2018-09-29T14:56:45.862Z,10.75
2018-09-29T14:59:14.719Z,11.50
2018-09-29T15:01:43.527Z,11.28
2018-09-29T15:04:12.456Z,10.90
2018-09-29T15:06:41.378Z,10.89
2018-09-29T15:09:11.775Z,10.78
2018-09-29T15:11:40.867Z,11.26
2018-09-29T15:14:10.424Z,10.95
2018-09-29T15:16:39.523Z,11.12
2018-09-29T15:19:08.315Z,11.50
2018-09-29T15:21:37.138Z,11.61
2018-09-29T15:24:06.139Z,11.16
2018-09-29T15:26:34.886Z,11.50
2018-09-29T15:29:03.724Z,11.83
2018-09-29T15:31:32.477Z,10.99
2018-09-29T15:34:01.060Z,11.24
2018-09-29T15:36:29.822Z,12.16
2018-09-29T15:38:58.430Z,12.29
2018-09-29T15:41:27.190Z,12.12
2018-09-29T15:43:56.202Z,12.42
2018-09-29T15:46:25.097Z,13.13
2018-09-29T15:48:53.988Z,13.67
2018-09-29T15:51:22.880Z,14.33
2018-09-29T15:53:51.903Z,18.38
2018-09-29T15:56:20.843Z,20.57
2018-09-29T15:58:49.603Z,22.99
2018-09-29T16:01:18.302Z,24.63
2018-09-29T16:03:47.289Z,26.05
2018-09-29T16:06:16.166Z,26.38
2018-09-29T16:08:45.283Z,27.52
2018-09-29T16:11:14.108Z,27.71
2018-09-29T16:13:42.777Z,29.25
2018-09-29T16:16:11.786Z,29.43
2018-09-29T16:18:40.505Z,29.73
2018-09-29T16:21:09.275Z,30.93
2018-09-29T16:23:38.265Z,31.08
2018-09-29T16:26:07.190Z,31.27
2018-09-29T16:28:35.883Z,31.54
2018-09-29T16:31:04.658Z,32.47
2018-09-29T16:33:33.542Z,32.33
2018-09-29T16:36:02.620Z,33.39
2018-09-29T16:38:31.432Z,33.56
2018-09-29T16:41:00.481Z,33.45
2018-09-29T16:43:29.450Z,34.02
2018-09-29T16:45:58.547Z,33.94
2018-09-29T16:48:27.383Z,34.60
2018-09-29T16:50:56.208Z,34.74
2018-09-29T16:53:25.314Z,34.80
2018-09-29T16:55:54.159Z,34.79
2018-09-29T16:58:22.958Z,35.13
2018-09-29T17:00:51.819Z,35.03
2018-09-29T17:03:20.748Z,35.93
2018-09-29T17:05:49.760Z,35.91
2018-09-29T17:08:18.698Z,35.70
2018-09-29T17:10:47.555Z,35.41
2018-09-29T17:13:16.188Z,35.51
2018-09-29T17:15:45.155Z,35.75
2018-09-29T17:18:13.876Z,35.92
2018-09-29T17:20:42.675Z,35.69
2018-09-29T17:23:11.556Z,36.22
2018-09-29T17:25:40.237Z,36.25
2018-09-29T17:28:08.810Z,37.17
2018-09-29T17:30:37.551Z,36.94
2018-09-29T17:33:06.475Z,37.38
2018-09-29T17:35:35.450Z,37.03
2018-09-29T17:38:04.533Z,37.52
2018-09-29T17:40:33.381Z,38.02
2018-09-29T17:43:02.502Z,37.59
2018-09-29T17:45:31.236Z,37.77
2018-09-29T17:48:00.186Z,38.12
2018-09-29T17:50:29.115Z,38.38
2018-09-29T17:52:57.908Z,39.55
2018-09-29T17:55:26.662Z,39.44
2018-09-29T17:57:55.378Z,40.22
2018-09-29T18:00:24.779Z,39.91
2018-09-29T18:02:53.979Z,40.88
2018-09-29T18:05:23.085Z,40.68
2018-09-29T18:07:52.058Z,41.02
2018-09-29T18:10:20.842Z,41.26
2018-09-29T18:12:49.598Z,41.02
2018-09-29T18:15:18.423Z,41.44
2018-09-29T18:17:47.384Z,42.00
2018-09-29T18:20:16.218Z,42.17
2018-09-29T18:22:45.331Z,41.82
2018-09-29T18:25:14.426Z,42.16
2018-09-29T18:27:43.176Z,42.42
2018-09-29T18:30:11.986Z,43.27
2018-09-29T18:32:40.936Z,43.83
2018-09-29T18:35:09.714Z,43.62
2018-09-29T18:37:38.583Z,43.32
2018-09-29T18:40:07.612Z,44.07
2018-09-29T18:42:36.466Z,43.95
2018-09-29T18:45:05.389Z,44.46
2018-09-29T18:47:34.188Z,44.67
2018-09-29T18:50:03.515Z,44.40
2018-09-29T18:52:32.571Z,44.48
2018-09-29T18:55:01.538Z,44.41
2018-09-29T18:57:30.469Z,44.78
2018-09-29T18:59:59.173Z,45.42
2018-09-29T19:02:28.479Z,45.96
2018-09-29T19:04:57.633Z,45.98
2018-09-29T19:07:26.575Z,45.45
2018-09-29T19:09:55.844Z,45.77
2018-09-29T19:12:24.622Z,46.59
2018-09-29T19:14:53.528Z,46.18
2018-09-29T19:17:22.272Z,46.70
2018-09-29T19:19:51.001Z,47.76
2018-09-29T19:22:20.020Z,48.83
2018-09-29T19:24:48.823Z,48.34
2018-09-29T19:27:17.490Z,48.67
2018-09-29T19:29:46.503Z,48.95
2018-09-29T19:32:15.742Z,49.00
2018-09-29T19:34:44.499Z,50.03
2018-09-29T19:37:13.319Z,49.91
2018-09-29T19:39:42.101Z,49.76
2018-09-29T19:42:10.853Z,50.00
2018-09-29T19:44:39.606Z,50.27
2018-09-29T19:47:08.546Z,50.42
2018-09-29T19:49:37.139Z,50.72
2018-09-29T19:52:06.393Z,50.77
2018-09-29T19:54:35.120Z,50.66
2018-09-29T19:57:03.961Z,50.55
2018-09-29T19:59:32.653Z,50.26
2018-09-29T20:02:01.535Z,50.57
2018-09-29T20:04:30.409Z,50.88
2018-09-29T20:06:59.443Z,50.25
2018-09-29T20:09:28.515Z,50.27
2018-09-29T20:11:57.752Z,51.07
2018-09-29T20:14:26.840Z,51.55
2018-09-29T20:16:56.031Z,51.18
2018-09-29T20:19:25.028Z,51.74
2018-09-29T20:21:54.116Z,52.30
2018-09-29T20:24:22.873Z,53.24
2018-09-29T20:26:51.741Z,53.12
2018-09-29T20:29:20.531Z,53.29
2018-09-29T20:31:49.472Z,54.17
2018-09-29T20:34:18.571Z,53.84
2018-09-29T20:36:47.292Z,54.52
2018-09-29T20:39:16.302Z,54.21
2018-09-29T20:41:45.244Z,54.70
2018-09-29T20:44:13.903Z,54.55
2018-09-29T20:46:42.979Z,54.07
2018-09-29T20:49:11.862Z,54.67
2018-09-29T20:51:40.795Z,54.60
2018-09-29T20:54:09.630Z,55.26
2018-09-29T20:56:38.345Z,54.63
2018-09-29T20:59:07.062Z,55.73
2018-09-29T21:01:35.889Z,55.77
2018-09-29T21:04:04.795Z,56.92
2018-09-29T21:06:34.023Z,57.51
2018-09-29T21:09:03.194Z,57.38
2018-09-29T21:11:32.129Z,56.12
2018-09-29T21:14:00.945Z,57.09
2018-09-29T21:16:29.894Z,57.39
2018-09-29T21:18:58.809Z,56.89
2018-09-29T21:21:27.952Z,56.97
2018-09-29T21:23:56.751Z,58.10
2018-09-29T21:26:25.502Z,58.46
2018-09-29T21:28:54.379Z,58.16
2018-09-29T21:31:23.453Z,58.81
2018-09-29T21:33:52.514Z,58.66
2018-09-29T21:36:21.375Z,58.66
2018-09-29T21:38:50.411Z,59.09
2018-09-29T21:41:19.154Z,59.06
2018-09-29T21:43:47.950Z,59.28
2018-09-29T21:46:17.022Z,59.89
2018-09-29T21:48:45.886Z,60.04
2018-09-29T21:51:14.638Z,60.57
2018-09-29T21:53:43.361Z,60.61
2018-09-29T21:56:12.126Z,60.89
2018-09-29T21:58:41.306Z,61.06
2018-09-29T22:01:15.026Z,61.33
2018-09-29T22:03:43.884Z,61.48
2018-09-29T22:06:12.690Z,61.47
2018-09-29T22:08:41.558Z,62.01
2018-09-29T22:11:10.370Z,61.92
2018-09-29T22:13:39.251Z,61.78
2018-09-29T22:16:08.182Z,61.56
2018-09-29T22:18:37.107Z,61.72
2018-09-29T22:21:05.921Z,61.14
2018-09-29T22:23:34.533Z,60.97
2018-09-29T22:26:03.216Z,61.20
2018-09-29T22:28:32.294Z,60.92
2018-09-29T22:31:01.150Z,61.37
2018-09-29T22:33:30.020Z,60.75
2018-09-29T22:35:58.766Z,60.54
2018-09-29T22:38:27.864Z,60.54
2018-09-29T22:40:56.646Z,60.54
2018-09-29T22:43:25.444Z,60.22
2018-09-29T22:45:54.691Z,59.74
2018-09-29T22:48:23.515Z,59.90
2018-09-29T22:50:52.390Z,59.46
2018-09-29T22:53:21.115Z,60.16
2018-09-29T22:55:49.938Z,59.70
2018-09-29T22:58:19.106Z,59.94
2018-09-29T23:00:48.016Z,59.82
2018-09-29T23:03:16.800Z,59.57
2018-09-29T23:05:45.795Z,59.43
2018-09-29T23:08:14.540Z,58.37
2018-09-29T23:10:43.152Z,58.68
2018-09-29T23:13:12.333Z,58.74
2018-09-29T23:15:41.336Z,58.80
2018-09-29T23:18:10.428Z,58.70
2018-09-29T23:20:39.095Z,59.23
2018-09-29T23:23:07.820Z,58.63
2018-09-29T23:25:36.497Z,59.01
2018-09-29T23:28:05.528Z,59.06
2018-09-29T23:30:34.533Z,58.62
2018-09-29T23:33:03.302Z,57.99
2018-09-29T23:35:32.230Z,57.19
2018-09-29T23:38:01.087Z,57.03
2018-09-29T23:40:30.258Z,58.12
2018-09-29T23:42:59.322Z,58.53
2018-09-29T23:45:28.083Z,58.38
2018-09-29T23:47:56.897Z,57.77
2018-09-29T23:50:25.739Z,58.28
2018-09-29T23:52:54.495Z,57.93
2018-09-29T23:55:23.270Z,58.12
2018-09-29T23:57:52.222Z,57.83
